Terminal Aerodrome Forecast
Issued by NWS

Home | Current Version | Previous Version | Text Only | Print | Product List | Glossary On
Versions: 1 2 3 4 5 6 7 8 9 10 11 12 13 14
562
FTUS45 KRIW 252333
TAFBPI
TAF
KBPI 252333Z 2600/2624 28011G18KT P6SM SCT110
     FM260100 33007KT P6SM SCT110
     FM260800 VRB05KT P6SM SKC
     FM262000 29013G21KT P6SM SCT110=

USA.gov is the U.S. government's official web portal to all federal, state and local government web resources and services.